createdAt,value
2019-04-27T00:02:27.734Z,11.27
2019-04-27T00:05:00.915Z,11.67
2019-04-27T00:07:45.864Z,10.73
2019-04-27T00:10:20.481Z,10.77
2019-04-27T00:12:49.523Z,11.37
2019-04-27T00:15:19.655Z,11.20
2019-04-27T00:17:58.884Z,12.27
2019-04-27T00:20:43.731Z,10.30
2019-04-27T00:23:14.925Z,11.27
2019-04-27T00:25:43.836Z,11.37
2019-04-27T00:28:12.905Z,11.33
2019-04-27T00:30:41.487Z,10.83
2019-04-27T00:33:09.963Z,10.47
2019-04-27T00:35:40.103Z,10.67
2019-04-27T00:38:19.322Z,11.50
2019-04-27T00:40:55.021Z,12.40
2019-04-27T00:43:23.474Z,12.77
2019-04-27T00:45:53.645Z,11.33
2019-04-27T00:48:23.388Z,11.50
2019-04-27T00:50:52.883Z,12.17
2019-04-27T00:53:23.504Z,10.70
2019-04-27T00:56:03.912Z,12.43
2019-04-27T00:58:43.378Z,12.87
2019-04-27T01:01:26.474Z,12.57
2019-04-27T01:03:56.586Z,10.87
2019-04-27T01:06:25.243Z,11.10
2019-04-27T01:08:53.710Z,11.27
2019-04-27T01:11:22.706Z,10.80
2019-04-27T01:13:53.747Z,11.43
2019-04-27T01:16:24.218Z,10.90
2019-04-27T01:18:52.484Z,11.07
2019-04-27T01:21:20.986Z,10.47
2019-04-27T01:23:49.441Z,10.47
2019-04-27T01:26:22.403Z,12.53
2019-04-27T01:28:55.440Z,10.07
2019-04-27T01:31:23.927Z,10.53
2019-04-27T01:33:52.420Z,11.53
2019-04-27T01:36:20.864Z,11.30
2019-04-27T01:38:49.729Z,12.00
2019-04-27T01:41:19.181Z,10.73
2019-04-27T01:43:49.071Z,10.37
2019-04-27T01:46:19.334Z,11.77
2019-04-27T01:48:48.998Z,11.13
2019-04-27T01:51:19.414Z,10.57
2019-04-27T01:53:49.178Z,12.13
2019-04-27T01:56:19.291Z,11.60
2019-04-27T01:58:49.395Z,13.23
2019-04-27T02:01:39.000Z,11.03
2019-04-27T02:04:15.195Z,11.07
2019-04-27T02:06:45.427Z,11.43
2019-04-27T02:09:16.783Z,10.23
2019-04-27T02:11:45.828Z,10.03
2019-04-27T02:14:14.378Z,9.87
2019-04-27T02:16:42.843Z,9.27
2019-04-27T02:19:11.523Z,9.67
2019-04-27T02:21:40.005Z,9.30
2019-04-27T02:24:09.763Z,8.13
2019-04-27T02:26:39.932Z,9.40
2019-04-27T02:29:18.978Z,8.37
2019-04-27T02:31:57.623Z,8.37
2019-04-27T02:34:31.969Z,8.23
2019-04-27T02:36:59.460Z,7.70
2019-04-27T02:39:29.743Z,8.17
2019-04-27T02:42:00.311Z,8.67
2019-04-27T02:44:30.305Z,8.40
2019-04-27T02:47:00.337Z,7.33
2019-04-27T02:49:30.466Z,7.53
2019-04-27T02:52:01.134Z,7.03
2019-04-27T02:54:29.982Z,7.30
2019-04-27T02:56:59.371Z,6.40
2019-04-27T02:59:30.257Z,6.60
2019-04-27T03:02:15.963Z,7.23
2019-04-27T03:04:44.448Z,6.00
2019-04-27T03:07:12.909Z,6.63
2019-04-27T03:09:41.394Z,6.67
2019-04-27T03:12:10.376Z,7.13
2019-04-27T03:14:52.672Z,6.37
2019-04-27T03:17:34.611Z,7.67
2019-04-27T03:20:10.540Z,7.17
2019-04-27T03:22:43.543Z,6.60
2019-04-27T03:25:15.707Z,7.27
2019-04-27T03:27:57.460Z,7.50
2019-04-27T03:30:25.990Z,7.30
2019-04-27T03:32:56.917Z,6.23
2019-04-27T03:35:24.796Z,6.70
2019-04-27T03:37:53.415Z,7.20
2019-04-27T03:40:21.890Z,6.53
2019-04-27T03:42:52.011Z,6.70
2019-04-27T03:45:20.492Z,6.87
2019-04-27T03:47:50.466Z,6.70
2019-04-27T03:50:20.904Z,6.27
2019-04-27T03:52:51.024Z,5.80
2019-04-27T03:55:21.112Z,5.67
2019-04-27T03:57:51.255Z,5.97
2019-04-27T04:00:24.473Z,5.80
2019-04-27T04:02:52.949Z,5.90
2019-04-27T04:05:21.421Z,5.77
2019-04-27T04:07:50.564Z,5.27
2019-04-27T04:10:19.944Z,5.83
2019-04-27T04:12:56.728Z,5.63
2019-04-27T04:15:35.943Z,6.00
2019-04-27T04:18:05.340Z,6.43
2019-04-27T04:20:33.790Z,6.63
2019-04-27T04:23:03.306Z,6.87
2019-04-27T04:25:33.050Z,6.50
2019-04-27T04:28:01.912Z,6.70
2019-04-27T04:30:30.539Z,7.10
2019-04-27T04:32:59.957Z,6.63
2019-04-27T04:35:32.602Z,7.47
2019-04-27T04:38:00.395Z,8.00
2019-04-27T04:40:30.899Z,8.20
2019-04-27T04:43:07.203Z,8.53
2019-04-27T04:45:39.301Z,8.57
2019-04-27T04:48:12.196Z,9.20
2019-04-27T04:50:40.725Z,7.73
2019-04-27T04:53:12.369Z,8.77
2019-04-27T04:55:39.458Z,9.77
2019-04-27T04:58:09.339Z,10.40
2019-04-27T05:00:40.080Z,9.77
2019-04-27T05:03:09.434Z,10.57
2019-04-27T05:05:41.046Z,9.87
2019-04-27T05:08:09.091Z,10.33
2019-04-27T05:10:39.477Z,9.57
2019-04-27T05:13:09.326Z,9.87
2019-04-27T05:15:39.495Z,11.53
2019-04-27T05:18:09.091Z,9.43
2019-04-27T05:20:42.222Z,10.83
2019-04-27T05:23:10.715Z,11.47
2019-04-27T05:25:39.313Z,11.13
2019-04-27T05:28:09.578Z,11.47
2019-04-27T05:30:39.071Z,12.20
2019-04-27T05:33:08.962Z,12.50
2019-04-27T05:35:40.662Z,12.93
2019-04-27T05:38:11.049Z,13.07
2019-04-27T05:40:41.220Z,13.17
2019-04-27T05:43:11.415Z,14.63
2019-04-27T05:46:12.382Z,16.07
2019-04-27T05:48:40.553Z,17.47
2019-04-27T05:51:09.237Z,16.30
2019-04-27T05:53:39.440Z,17.30
2019-04-27T05:56:09.391Z,16.50
2019-04-27T05:58:39.226Z,16.67
2019-04-27T06:01:10.942Z,17.20
2019-04-27T06:03:39.702Z,16.77
2019-04-27T06:06:09.627Z,17.20
2019-04-27T06:08:39.277Z,16.30
2019-04-27T06:11:09.392Z,17.47
2019-04-27T06:13:39.228Z,18.93
2019-04-27T06:16:09.389Z,16.97
2019-04-27T06:18:39.173Z,18.13
2019-04-27T06:21:09.582Z,17.40
2019-04-27T06:23:39.056Z,18.10
2019-04-27T06:26:11.379Z,18.87
2019-04-27T06:28:39.802Z,16.90
2019-04-27T06:31:08.814Z,17.80
2019-04-27T06:33:38.996Z,18.17
2019-04-27T06:36:09.873Z,16.97
2019-04-27T06:38:39.357Z,18.87
2019-04-27T06:41:09.786Z,18.70
2019-04-27T06:43:38.101Z,17.40
2019-04-27T06:46:06.528Z,15.90
2019-04-27T06:48:35.675Z,17.07
2019-04-27T06:51:05.716Z,18.00
2019-04-27T06:53:34.526Z,16.30
2019-04-27T06:56:02.971Z,15.73
2019-04-27T06:58:31.467Z,17.13
2019-04-27T07:00:59.992Z,16.47
2019-04-27T07:03:28.935Z,15.73
2019-04-27T07:05:58.829Z,15.33
2019-04-27T07:08:28.674Z,15.43
2019-04-27T07:10:58.821Z,15.57
2019-04-27T07:13:29.133Z,14.13
2019-04-27T07:15:59.559Z,14.27
2019-04-27T07:18:28.570Z,12.83
2019-04-27T07:21:18.796Z,12.93
2019-04-27T07:23:59.734Z,14.20
2019-04-27T07:26:30.259Z,14.07
2019-04-27T07:28:59.613Z,13.13
2019-04-27T07:31:29.548Z,12.50
2019-04-27T07:33:59.524Z,13.10
2019-04-27T07:36:29.001Z,12.03
2019-04-27T07:39:11.536Z,11.43
2019-04-27T07:41:40.288Z,10.83
2019-04-27T07:44:25.508Z,10.80
2019-04-27T07:47:11.944Z,9.33
2019-04-27T07:49:40.407Z,10.00
2019-04-27T07:52:08.939Z,9.47
2019-04-27T07:54:38.495Z,8.47
2019-04-27T07:57:07.705Z,9.40
2019-04-27T07:59:36.172Z,9.23
2019-04-27T08:02:04.928Z,8.70
2019-04-27T08:04:33.430Z,10.13
2019-04-27T08:07:01.991Z,9.23
2019-04-27T08:09:30.586Z,9.43
2019-04-27T08:11:59.113Z,10.43
2019-04-27T08:14:28.583Z,9.90
2019-04-27T08:16:58.673Z,9.93
2019-04-27T08:19:27.218Z,11.70
2019-04-27T08:25:25.299Z,10.67
2019-04-27T08:28:13.560Z,11.17
2019-04-27T08:30:52.589Z,9.63
2019-04-27T08:33:21.158Z,11.03
2019-04-27T08:35:49.662Z,9.90
2019-04-27T08:38:18.980Z,10.07
2019-04-27T08:40:49.343Z,11.17
2019-04-27T08:43:19.143Z,11.43
2019-04-27T08:45:48.806Z,10.20
2019-04-27T08:48:25.142Z,10.13
2019-04-27T08:50:48.667Z,10.23
2019-04-27T08:53:18.629Z,12.40
2019-04-27T08:55:47.252Z,10.97
2019-04-27T08:58:15.822Z,12.03
2019-04-27T09:00:44.281Z,11.33
2019-04-27T09:03:12.784Z,12.73
2019-04-27T09:05:41.264Z,11.83
2019-04-27T09:08:23.629Z,11.37
2019-04-27T09:10:59.780Z,11.70
2019-04-27T09:13:29.956Z,11.27
2019-04-27T09:16:00.172Z,10.77
2019-04-27T09:18:32.415Z,12.70
2019-04-27T09:21:04.347Z,14.67
2019-04-27T09:23:32.862Z,14.00
2019-04-27T09:26:01.367Z,15.30
2019-04-27T09:28:29.881Z,14.47
2019-04-27T09:30:58.928Z,17.03
2019-04-27T09:33:27.457Z,18.03
2019-04-27T09:35:56.735Z,19.53
2019-04-27T09:38:26.503Z,19.23
2019-04-27T09:40:55.903Z,20.27
2019-04-27T09:43:26.421Z,22.00
2019-04-27T09:45:55.816Z,20.93
2019-04-27T09:48:25.897Z,21.27
2019-04-27T09:50:56.055Z,22.07
2019-04-27T09:53:24.632Z,22.00
2019-04-27T09:55:53.173Z,22.83
2019-04-27T09:58:21.781Z,23.70
2019-04-27T10:00:50.318Z,23.70
2019-04-27T10:03:18.818Z,22.23
2019-04-27T10:05:47.442Z,23.03
2019-04-27T10:08:16.941Z,21.10
2019-04-27T10:10:46.439Z,20.03
2019-04-27T10:13:15.845Z,18.63
2019-04-27T10:15:45.960Z,20.10
2019-04-27T10:18:16.209Z,19.10
2019-04-27T10:20:56.977Z,21.10
2019-04-27T10:23:15.107Z,17.33
2019-04-27T10:25:43.591Z,15.73
2019-04-27T10:28:12.106Z,14.17
2019-04-27T10:30:40.664Z,13.13
2019-04-27T10:33:09.133Z,13.80
2019-04-27T10:35:37.589Z,13.83
2019-04-27T10:38:06.222Z,14.87
2019-04-27T10:40:34.781Z,11.33
2019-04-27T10:43:03.321Z,13.53
2019-04-27T10:45:31.976Z,12.00
2019-04-27T10:48:00.526Z,13.57
2019-04-27T10:50:29.113Z,12.57
2019-04-27T10:52:59.385Z,12.77
2019-04-27T10:55:27.920Z,11.53
2019-04-27T10:57:56.417Z,11.90
2019-04-27T11:00:32.815Z,12.70
2019-04-27T11:03:01.286Z,11.70
2019-04-27T11:05:47.766Z,12.30
2019-04-27T11:08:16.759Z,12.07
2019-04-27T11:10:46.151Z,13.17
2019-04-27T11:13:16.449Z,13.27
2019-04-27T11:15:46.133Z,12.60
2019-04-27T11:18:16.557Z,14.07
2019-04-27T11:20:46.314Z,13.33
2019-04-27T11:23:16.432Z,13.20
2019-04-27T11:25:46.660Z,14.30
2019-04-27T11:28:15.699Z,13.60
2019-04-27T11:30:44.289Z,12.40
2019-04-27T11:33:12.752Z,13.97
2019-04-27T11:35:42.997Z,12.60
2019-04-27T11:38:11.547Z,11.53
2019-04-27T11:40:40.060Z,11.30
2019-04-27T11:43:08.623Z,12.27
2019-04-27T11:45:37.121Z,10.63
2019-04-27T11:48:06.341Z,10.03
2019-04-27T11:50:35.813Z,9.57
2019-04-27T11:53:06.212Z,11.07
2019-04-27T11:55:34.906Z,9.87
2019-04-27T11:58:03.399Z,10.53
2019-04-27T12:03:21.224Z,9.70
2019-04-27T12:05:49.746Z,8.13
2019-04-27T12:08:18.270Z,7.87
2019-04-27T12:10:48.249Z,9.17
2019-04-27T12:13:17.294Z,8.60
2019-04-27T12:15:46.459Z,8.77
2019-04-27T12:18:15.010Z,7.03
2019-04-27T12:20:43.521Z,7.20
2019-04-27T12:23:11.988Z,6.80
2019-04-27T12:25:40.553Z,6.30
2019-04-27T12:28:27.205Z,7.40
2019-04-27T12:30:57.469Z,6.27
2019-04-27T12:33:27.746Z,7.37
2019-04-27T12:35:56.865Z,7.43
2019-04-27T12:38:26.389Z,6.50
2019-04-27T12:40:56.530Z,6.60
2019-04-27T12:43:25.220Z,7.00
2019-04-27T12:45:55.431Z,6.37
2019-04-27T12:48:24.102Z,6.23
2019-04-27T12:50:52.574Z,6.10
2019-04-27T12:53:31.746Z,6.47
2019-04-27T12:56:18.171Z,6.03
2019-04-27T13:01:29.690Z,6.73
2019-04-27T13:03:59.306Z,6.63
2019-04-27T13:06:44.035Z,7.17
2019-04-27T13:09:12.595Z,6.90
2019-04-27T13:11:41.151Z,6.80
2019-04-27T13:14:09.664Z,5.63
2019-04-27T13:16:38.123Z,6.13
2019-04-27T13:19:06.621Z,6.87
2019-04-27T13:21:36.534Z,5.83
2019-04-27T13:24:06.966Z,6.80
2019-04-27T13:26:36.174Z,6.10
2019-04-27T13:29:06.805Z,6.07
2019-04-27T13:31:36.916Z,6.93
2019-04-27T13:34:06.495Z,6.00
2019-04-27T13:36:36.639Z,6.20
2019-04-27T13:39:06.418Z,6.47
2019-04-27T13:41:44.104Z,6.73
2019-04-27T13:44:12.589Z,6.50
2019-04-27T13:46:58.939Z,5.70
2019-04-27T13:49:46.113Z,5.60
2019-04-27T13:52:16.348Z,6.53
2019-04-27T13:54:45.876Z,6.43
2019-04-27T13:57:16.450Z,6.37
2019-04-27T13:59:44.711Z,5.50
2019-04-27T14:02:13.513Z,6.50
2019-04-27T14:04:42.085Z,5.53
2019-04-27T14:07:10.634Z,5.83
2019-04-27T14:09:39.296Z,5.70
2019-04-27T14:12:18.760Z,5.23
2019-04-27T14:14:49.089Z,5.33
2019-04-27T14:17:19.159Z,4.80
2019-04-27T14:19:48.274Z,5.23
2019-04-27T14:22:18.235Z,5.10
2019-04-27T14:24:48.578Z,5.90
2019-04-27T14:27:18.000Z,6.17
2019-04-27T14:29:46.504Z,5.60
2019-04-27T14:32:15.073Z,5.63
2019-04-27T14:34:43.571Z,5.00
2019-04-27T14:37:12.040Z,5.33
2019-04-27T14:39:40.489Z,5.03
2019-04-27T14:42:08.992Z,5.70
2019-04-27T14:44:38.982Z,5.30
2019-04-27T14:47:08.151Z,4.07
2019-04-27T14:49:36.746Z,3.80
2019-04-27T14:52:05.250Z,3.70
2019-04-27T14:54:47.299Z,3.80
2019-04-27T14:57:04.310Z,3.90
2019-04-27T14:59:32.772Z,4.20
2019-04-27T15:02:01.276Z,4.00
2019-04-27T15:39:44.866Z,5.87
2019-04-27T15:42:28.302Z,5.73
2019-04-27T15:45:48.487Z,6.00
2019-04-27T15:48:17.924Z,6.33
2019-04-27T15:50:46.955Z,5.60
2019-04-27T15:53:15.459Z,5.87
2019-04-27T15:55:44.055Z,5.30
2019-04-27T15:58:12.603Z,5.87
2019-04-27T16:00:41.100Z,5.17
2019-04-27T16:03:09.891Z,4.83
2019-04-27T16:05:38.453Z,4.70
2019-04-27T16:08:12.826Z,4.83
2019-04-27T16:10:40.077Z,5.60
2019-04-27T16:13:10.783Z,4.70
2019-04-27T16:15:38.401Z,4.67
2019-04-27T16:18:08.658Z,4.50
2019-04-27T16:20:38.117Z,4.10
2019-04-27T16:23:08.754Z,4.10
2019-04-27T16:25:47.448Z,4.93
2019-04-27T16:28:09.708Z,4.97
2019-04-27T16:30:39.145Z,4.63
2019-04-27T16:33:08.719Z,5.67
2019-04-27T16:35:38.728Z,5.07
2019-04-27T16:38:21.021Z,5.33
2019-04-27T16:40:49.501Z,5.20
2019-04-27T16:43:18.807Z,4.87
2019-04-27T16:45:48.512Z,4.90
2019-04-27T16:48:18.526Z,5.13
2019-04-27T16:50:47.132Z,4.90
2019-04-27T16:53:15.623Z,4.60
2019-04-27T16:55:44.175Z,5.30
2019-04-27T16:58:16.221Z,5.00
2019-04-27T17:00:43.736Z,5.07
2019-04-27T17:03:12.437Z,4.73
2019-04-27T17:05:41.000Z,4.63
2019-04-27T17:08:14.237Z,4.27
2019-04-27T17:10:39.812Z,4.57
2019-04-27T17:13:13.346Z,3.90
2019-04-27T17:15:58.896Z,3.90
2019-04-27T17:18:31.835Z,4.60
2019-04-27T17:21:09.971Z,4.57
2019-04-27T17:23:31.655Z,4.20
2019-04-27T17:26:06.292Z,3.90
2019-04-27T17:28:41.061Z,4.07
2019-04-27T17:31:12.951Z,4.07
2019-04-27T17:33:44.671Z,4.00
2019-04-27T17:36:12.091Z,4.27
2019-04-27T17:38:42.649Z,3.67
2019-04-27T17:41:12.738Z,4.40
2019-04-27T17:43:41.510Z,6.03
2019-04-27T17:46:11.680Z,9.83
2019-04-27T17:48:41.554Z,6.30
2019-04-27T17:51:10.217Z,5.33
2019-04-27T17:53:38.770Z,4.77
2019-04-27T17:56:08.616Z,4.70
2019-04-27T17:58:39.626Z,4.40
2019-04-27T18:01:14.175Z,4.50
2019-04-27T18:03:39.974Z,4.33
2019-04-27T18:06:08.739Z,4.53
2019-04-27T18:08:39.960Z,5.20
2019-04-27T18:11:08.765Z,4.50
2019-04-27T18:13:38.789Z,4.53
2019-04-27T18:16:09.239Z,4.47
2019-04-27T18:18:41.706Z,4.20
2019-04-27T18:21:11.122Z,4.53
2019-04-27T18:23:41.258Z,4.80
2019-04-27T18:26:29.473Z,5.00
2019-04-27T18:29:00.056Z,4.93
2019-04-27T18:31:28.952Z,4.97
2019-04-27T18:33:58.882Z,5.43
2019-04-27T18:36:29.422Z,4.87
2019-04-27T18:38:58.705Z,5.43
2019-04-27T18:41:28.771Z,5.23
2019-04-27T18:43:59.942Z,5.43
2019-04-27T18:46:28.296Z,6.00
2019-04-27T18:48:58.575Z,6.30
2019-04-27T18:51:48.225Z,5.63
2019-04-27T18:54:18.391Z,5.90
2019-04-27T18:56:49.042Z,6.20
2019-04-27T18:59:18.688Z,5.90
2019-04-27T19:01:48.947Z,5.37
2019-04-27T19:04:18.984Z,5.50
2019-04-27T19:06:47.554Z,5.07
2019-04-27T19:09:18.647Z,5.23
2019-04-27T19:11:56.275Z,5.10
2019-04-27T19:14:18.973Z,5.13
2019-04-27T19:16:48.431Z,4.97
2019-04-27T19:19:18.812Z,5.37
2019-04-27T19:21:48.573Z,5.50
2019-04-27T19:24:19.063Z,6.10
2019-04-27T19:26:49.094Z,5.57
2019-04-27T19:29:22.486Z,6.13
2019-04-27T19:31:52.584Z,5.67
2019-04-27T19:34:21.061Z,5.73
2019-04-27T19:36:49.618Z,6.00
2019-04-27T19:39:18.235Z,5.03
2019-04-27T19:42:00.007Z,5.43
2019-04-27T19:44:18.752Z,5.57
2019-04-27T19:46:49.329Z,5.47
2019-04-27T19:49:19.251Z,5.47
2019-04-27T19:51:47.912Z,5.20
2019-04-27T19:54:16.416Z,5.60
2019-04-27T19:56:44.904Z,5.33
2019-04-27T19:59:32.985Z,5.57
2019-04-27T20:02:03.208Z,6.50
2019-04-27T20:04:36.210Z,6.07
2019-04-27T20:07:04.752Z,5.43
2019-04-27T20:09:50.373Z,5.30
2019-04-27T20:12:18.879Z,4.60
2019-04-27T20:14:56.658Z,3.90
2019-04-27T20:17:26.276Z,2.57
2019-04-27T20:19:55.296Z,2.93
2019-04-27T20:22:24.441Z,2.33
2019-04-27T20:24:53.046Z,1.90
2019-04-27T20:27:21.533Z,1.83
2019-04-27T20:29:50.117Z,2.10
2019-04-27T20:32:18.630Z,2.30
2019-04-27T20:34:47.134Z,2.17
2019-04-27T20:37:15.687Z,2.67
2019-04-27T20:39:44.192Z,2.10
2019-04-27T20:42:12.737Z,2.00
2019-04-27T20:44:41.447Z,1.67
2019-04-27T20:47:10.472Z,1.80
2019-04-27T20:49:39.021Z,1.80
2019-04-27T20:52:15.557Z,1.77
2019-04-27T20:54:44.006Z,1.67
2019-04-27T20:57:12.520Z,2.10
2019-04-27T20:59:41.017Z,1.70
2019-04-27T21:02:27.679Z,1.70
2019-04-27T21:04:57.824Z,1.80
2019-04-27T21:07:39.973Z,1.60
2019-04-27T21:10:08.536Z,1.90
2019-04-27T21:12:37.623Z,2.00
2019-04-27T21:15:06.271Z,1.67
2019-04-27T21:17:34.775Z,2.00
2019-04-27T21:20:03.663Z,1.63
2019-04-27T21:22:32.174Z,1.90
2019-04-27T21:25:01.597Z,1.50
2019-04-27T21:27:31.823Z,1.70
2019-04-27T21:30:02.577Z,1.87
2019-04-27T21:32:30.668Z,1.83
2019-04-27T21:34:59.208Z,2.67
2019-04-27T21:37:27.811Z,1.83
2019-04-27T21:40:13.309Z,1.60
2019-04-27T21:42:41.842Z,2.00
2019-04-27T21:45:11.273Z,1.50
2019-04-27T21:47:41.325Z,2.17
2019-04-27T21:50:12.068Z,1.80
2019-04-27T21:52:58.725Z,1.90
2019-04-27T21:55:31.694Z,1.80
2019-04-27T21:58:01.498Z,1.53
2019-04-27T22:00:39.759Z,1.80
2019-04-27T22:03:11.426Z,1.70
2019-04-27T22:05:41.695Z,1.60
2019-04-27T22:08:11.797Z,1.80
2019-04-27T22:10:40.667Z,1.80
2019-04-27T22:13:09.305Z,1.87
2019-04-27T22:15:37.920Z,3.13
2019-04-27T22:18:07.187Z,2.50
2019-04-27T22:20:36.032Z,1.93
2019-04-27T22:23:06.422Z,1.87
2019-04-27T22:25:36.276Z,2.20
2019-04-27T22:28:05.171Z,1.73
2019-04-27T22:30:33.763Z,1.77
2019-04-27T22:33:02.347Z,2.00
2019-04-27T22:35:31.251Z,1.80
2019-04-27T22:38:01.795Z,1.97
2019-04-27T22:40:43.263Z,2.07
2019-04-27T22:43:22.944Z,2.17
2019-04-27T22:45:51.512Z,1.87
2019-04-27T22:48:19.995Z,2.20
2019-04-27T22:50:48.501Z,1.90
2019-04-27T22:53:16.955Z,2.07
2019-04-27T22:56:03.348Z,2.10
2019-04-27T22:58:31.950Z,1.93
2019-04-27T23:01:10.998Z,2.23
2019-04-27T23:03:41.490Z,2.10
2019-04-27T23:06:11.398Z,2.83
2019-04-27T23:08:41.494Z,2.10
2019-04-27T23:11:10.880Z,2.00
2019-04-27T23:13:39.445Z,2.10
2019-04-27T23:16:11.529Z,2.57
2019-04-27T23:18:41.317Z,2.27
2019-04-27T23:21:11.685Z,2.27
2019-04-27T23:23:41.365Z,2.27
2019-04-27T23:26:11.847Z,2.30
2019-04-27T23:28:41.342Z,2.60
2019-04-27T23:31:14.230Z,2.53
2019-04-27T23:33:44.433Z,2.53
2019-04-27T23:36:12.889Z,2.73
2019-04-27T23:38:41.342Z,3.00
2019-04-27T23:41:11.570Z,2.40
2019-04-27T23:43:40.210Z,2.73
2019-04-27T23:46:08.761Z,2.80
2019-04-27T23:48:37.933Z,2.80
2019-04-27T23:51:10.763Z,3.23
2019-04-27T23:53:41.691Z,2.83
2019-04-27T23:56:10.083Z,2.83
2019-04-27T23:58:38.593Z,2.80
